sensor_id;sensor_type;location;lat;lon;timestamp;pressure;altitude;pressure_sealevel;temperature;humidity
6938;BME280;40040;42.706;23.372;2023-08-12T00:00:09;148845.66;;;18.95;97.37
6938;BME280;40040;42.706;23.372;2023-08-12T00:02:37;148844.47;;;18.95;97.47
6938;BME280;40040;42.706;23.372;2023-08-12T00:05:05;148829.53;;;18.89;97.94
6938;BME280;40040;42.706;23.372;2023-08-12T00:07:32;148823.31;;;18.86;97.99
6938;BME280;40040;42.706;23.372;2023-08-12T00:10:01;148809.69;;;18.81;97.84
6938;BME280;40040;42.706;23.372;2023-08-12T00:12:30;148801.00;;;18.77;98.83
6938;BME280;40040;42.706;23.372;2023-08-12T00:14:58;148789.81;;;18.73;100.00
6938;BME280;40040;42.706;23.372;2023-08-12T00:17:24;148774.94;;;18.67;100.00
6938;BME280;40040;42.706;23.372;2023-08-12T00:19:52;148753.84;;;18.58;100.00
6938;BME280;40040;42.706;23.372;2023-08-12T00:22:19;148727.78;;;18.48;100.00
6938;BME280;40040;42.706;23.372;2023-08-12T00:24:45;148728.97;;;18.48;100.00
6938;BME280;40040;42.706;23.372;2023-08-12T00:27:14;148717.84;;;18.44;100.00
6938;BME280;40040;42.706;23.372;2023-08-12T00:29:41;148711.63;;;18.41;100.00
6938;BME280;40040;42.706;23.372;2023-08-12T00:32:08;148700.41;;;18.37;100.00
6938;BME280;40040;42.706;23.372;2023-08-12T00:34:35;148638.34;;;18.12;100.00
6938;BME280;40040;42.706;23.372;2023-08-12T00:37:02;148692.97;;;18.34;100.00
6938;BME280;40040;42.706;23.372;2023-08-12T00:39:29;148680.59;;;18.29;100.00
6938;BME280;40040;42.706;23.372;2023-08-12T00:41:56;148673.09;;;18.26;100.00
6938;BME280;40040;42.706;23.372;2023-08-12T00:44:24;148663.19;;;18.22;100.00
6938;BME280;40040;42.706;23.372;2023-08-12T00:46:51;148650.75;;;18.17;100.00
6938;BME280;40040;42.706;23.372;2023-08-12T00:49:20;148625.94;;;18.07;100.00
6938;BME280;40040;42.706;23.372;2023-08-12T00:51:49;148618.53;;;18.04;100.00
6938;BME280;40040;42.706;23.372;2023-08-12T00:54:16;148550.31;;;17.76;100.00
6938;BME280;40040;42.706;23.372;2023-08-12T00:56:45;148587.50;;;17.91;100.00
6938;BME280;40040;42.706;23.372;2023-08-12T00:59:12;148531.69;;;17.68;100.00
6938;BME280;40040;42.706;23.372;2023-08-12T01:01:41;148581.31;;;17.88;100.00
6938;BME280;40040;42.706;23.372;2023-08-12T01:04:09;148573.84;;;17.85;100.00
6938;BME280;40040;42.706;23.372;2023-08-12T01:06:36;148562.69;;;17.81;100.00
6938;BME280;40040;42.706;23.372;2023-08-12T01:09:04;148491.97;;;17.52;100.00
6938;BME280;40040;42.706;23.372;2023-08-12T01:11:36;148544.06;;;17.73;100.00
6938;BME280;40040;42.706;23.372;2023-08-12T01:14:11;148535.38;;;17.70;100.00
6938;BME280;40040;42.706;23.372;2023-08-12T01:16:45;148535.38;;;17.70;100.00
6938;BME280;40040;42.706;23.372;2023-08-12T01:19:21;148518.03;;;17.63;100.00
6938;BME280;40040;42.706;23.372;2023-08-12T01:21:52;148511.84;;;17.60;100.00
6938;BME280;40040;42.706;23.372;2023-08-12T01:24:24;148504.38;;;17.57;100.00
6938;BME280;40040;42.706;23.372;2023-08-12T01:26:51;148501.91;;;17.56;100.00
6938;BME280;40040;42.706;23.372;2023-08-12T01:29:18;148477.13;;;17.46;100.00
6938;BME280;40040;42.706;23.372;2023-08-12T01:31:47;148479.59;;;17.47;100.00
6938;BME280;40040;42.706;23.372;2023-08-12T01:34:23;148469.66;;;17.43;100.00
6938;BME280;40040;42.706;23.372;2023-08-12T01:36:55;148454.75;;;17.37;100.00
6938;BME280;40040;42.706;23.372;2023-08-12T01:39:26;148380.34;;;17.07;100.00
6938;BME280;40040;42.706;23.372;2023-08-12T01:41:54;148391.53;;;17.12;100.00
6938;BME280;40040;42.706;23.372;2023-08-12T01:44:22;148439.84;;;17.31;100.00
6938;BME280;40040;42.706;23.372;2023-08-12T01:46:49;148438.63;;;17.31;100.00
6938;BME280;40040;42.706;23.372;2023-08-12T01:49:16;148436.13;;;17.30;100.00
6938;BME280;40040;42.706;23.372;2023-08-12T01:51:43;148407.63;;;17.18;100.00
6938;BME280;40040;42.706;23.372;2023-08-12T01:54:10;148421.28;;;17.24;100.00
6938;BME280;40040;42.706;23.372;2023-08-12T01:56:38;148418.75;;;17.23;100.00
6938;BME280;40040;42.706;23.372;2023-08-12T01:59:05;148402.66;;;17.16;100.00
6938;BME280;40040;42.706;23.372;2023-08-12T02:01:31;148356.81;;;16.98;100.00
6938;BME280;40040;42.706;23.372;2023-08-12T02:03:58;148407.63;;;17.18;100.00
6938;BME280;40040;42.706;23.372;2023-08-12T02:06:25;148390.25;;;17.11;100.00
6938;BME280;40040;42.706;23.372;2023-08-12T02:08:52;148324.56;;;16.84;100.00
6938;BME280;40040;42.706;23.372;2023-08-12T02:11:18;148390.25;;;17.11;100.00
6938;BME280;40040;42.706;23.372;2023-08-12T02:13:47;148391.53;;;17.12;100.00
6938;BME280;40040;42.706;23.372;2023-08-12T02:16:13;148393.97;;;17.13;100.00
6938;BME280;40040;42.706;23.372;2023-08-12T02:18:40;148392.72;;;17.12;100.00
6938;BME280;40040;42.706;23.372;2023-08-12T02:21:07;148385.31;;;17.09;100.00
6938;BME280;40040;42.706;23.372;2023-08-12T02:23:34;148380.34;;;17.07;100.00
6938;BME280;40040;42.706;23.372;2023-08-12T02:26:01;148384.03;;;17.09;100.00
6938;BME280;40040;42.706;23.372;2023-08-12T02:28:28;148376.63;;;17.06;100.00
6938;BME280;40040;42.706;23.372;2023-08-12T02:30:56;148367.94;;;17.02;100.00
6938;BME280;40040;42.706;23.372;2023-08-12T02:33:23;148367.94;;;17.02;100.00
6938;BME280;40040;42.706;23.372;2023-08-12T02:35:53;148358.00;;;16.98;100.00
6938;BME280;40040;42.706;23.372;2023-08-12T02:38:20;148360.53;;;16.99;100.00
6938;BME280;40040;42.706;23.372;2023-08-12T02:40:48;148313.41;;;16.80;100.00
6938;BME280;40040;42.706;23.372;2023-08-12T02:43:14;148299.78;;;16.74;100.00
6938;BME280;40040;42.706;23.372;2023-08-12T02:45:41;148355.56;;;16.97;100.00
6938;BME280;40040;42.706;23.372;2023-08-12T02:48:10;148343.16;;;16.92;100.00
6938;BME280;40040;42.706;23.372;2023-08-12T02:50:37;148348.13;;;16.94;100.00
6938;BME280;40040;42.706;23.372;2023-08-12T02:53:04;148333.22;;;16.88;100.00
6938;BME280;40040;42.706;23.372;2023-08-12T02:55:32;148349.34;;;16.95;100.00
6938;BME280;40040;42.706;23.372;2023-08-12T02:57:59;148341.91;;;16.92;100.00
6938;BME280;40040;42.706;23.372;2023-08-12T03:00:26;148330.75;;;16.87;100.00
6938;BME280;40040;42.706;23.372;2023-08-12T03:02:52;148315.88;;;16.81;100.00
6938;BME280;40040;42.706;23.372;2023-08-12T03:05:21;148272.47;;;16.63;100.00
6938;BME280;40040;42.706;23.372;2023-08-12T03:07:48;148344.41;;;16.93;100.00
6938;BME280;40040;42.706;23.372;2023-08-12T03:10:17;148350.59;;;16.95;100.00
6938;BME280;40040;42.706;23.372;2023-08-12T03:12:43;148348.13;;;16.94;100.00
6938;BME280;40040;42.706;23.372;2023-08-12T03:15:11;148333.22;;;16.88;100.00
6938;BME280;40040;42.706;23.372;2023-08-12T03:17:37;148324.56;;;16.84;100.00
6938;BME280;40040;42.706;23.372;2023-08-12T03:20:06;148266.31;;;16.61;100.00
6938;BME280;40040;42.706;23.372;2023-08-12T03:22:35;148253.94;;;16.56;100.00
6938;BME280;40040;42.706;23.372;2023-08-12T03:25:03;148301.03;;;16.75;100.00
6938;BME280;40040;42.706;23.372;2023-08-12T03:27:30;148288.63;;;16.70;100.00
6938;BME280;40040;42.706;23.372;2023-08-12T03:29:57;148283.66;;;16.68;100.00
6938;BME280;40040;42.706;23.372;2023-08-12T03:32:24;148199.31;;;16.34;100.00
6938;BME280;40040;42.706;23.372;2023-08-12T03:34:51;148168.38;;;16.21;100.00
6938;BME280;40040;42.706;23.372;2023-08-12T03:37:18;148234.06;;;16.48;100.00
6938;BME280;40040;42.706;23.372;2023-08-12T03:39:46;148229.06;;;16.46;100.00
6938;BME280;40040;42.706;23.372;2023-08-12T03:42:13;148177.06;;;16.25;100.00
6938;BME280;40040;42.706;23.372;2023-08-12T03:44:42;148190.66;;;16.30;100.00
6938;BME280;40040;42.706;23.372;2023-08-12T03:47:09;148221.63;;;16.43;100.00
6938;BME280;40040;42.706;23.372;2023-08-12T03:49:36;148162.16;;;16.19;100.00
6938;BME280;40040;42.706;23.372;2023-08-12T03:52:03;148163.41;;;16.19;100.00
6938;BME280;40040;42.706;23.372;2023-08-12T03:54:32;148214.22;;;16.40;100.00
6938;BME280;40040;42.706;23.372;2023-08-12T03:57:00;148209.25;;;16.38;100.00
6938;BME280;40040;42.706;23.372;2023-08-12T03:59:27;148208.00;;;16.37;100.00
6938;BME280;40040;42.706;23.372;2023-08-12T04:01:54;148198.13;;;16.33;100.00
6938;BME280;40040;42.706;23.372;2023-08-12T04:04:21;148191.91;;;16.31;100.00
6938;BME280;40040;42.706;23.372;2023-08-12T04:06:48;148120.06;;;16.02;100.00
6938;BME280;40040;42.706;23.372;2023-08-12T04:09:17;148127.47;;;16.05;100.00
6938;BME280;40040;42.706;23.372;2023-08-12T04:11:44;148188.19;;;16.29;100.00
6938;BME280;40040;42.706;23.372;2023-08-12T04:14:12;148205.53;;;16.36;100.00
6938;BME280;40040;42.706;23.372;2023-08-12T04:16:39;148188.19;;;16.29;100.00
6938;BME280;40040;42.706;23.372;2023-08-12T04:19:06;148167.13;;;16.21;100.00
6938;BME280;40040;42.706;23.372;2023-08-12T04:21:33;148159.72;;;16.18;100.00
6938;BME280;40040;42.706;23.372;2023-08-12T04:24:00;148137.41;;;16.09;100.00
6938;BME280;40040;42.706;23.372;2023-08-12T04:26:27;148118.81;;;16.01;100.00
6938;BME280;40040;42.706;23.372;2023-08-12T04:28:53;148106.41;;;15.96;100.00
6938;BME280;40040;42.706;23.372;2023-08-12T04:31:22;148110.13;;;15.98;100.00
6938;BME280;40040;42.706;23.372;2023-08-12T04:33:48;148118.81;;;16.01;100.00
6938;BME280;40040;42.706;23.372;2023-08-12T04:36:18;148050.69;;;15.73;100.00
6938;BME280;40040;42.706;23.372;2023-08-12T04:38:45;148090.31;;;15.90;100.00
6938;BME280;40040;42.706;23.372;2023-08-12T04:41:12;148121.31;;;16.02;100.00
6938;BME280;40040;42.706;23.372;2023-08-12T04:43:38;148122.50;;;16.03;100.00
6938;BME280;40040;42.706;23.372;2023-08-12T04:46:05;148133.69;;;16.07;100.00
6938;BME280;40040;42.706;23.372;2023-08-12T04:48:33;148060.59;;;15.77;100.00
6938;BME280;40040;42.706;23.372;2023-08-12T04:51:00;148086.63;;;15.88;100.00
6938;BME280;40040;42.706;23.372;2023-08-12T04:53:28;148174.53;;;16.24;100.00
6938;BME280;40040;42.706;23.372;2023-08-12T04:55:55;148174.53;;;16.24;100.00
6938;BME280;40040;42.706;23.372;2023-08-12T04:58:22;148196.84;;;16.33;100.00
6938;BME280;40040;42.706;23.372;2023-08-12T05:00:49;148199.31;;;16.34;100.00
6938;BME280;40040;42.706;23.372;2023-08-12T05:03:17;148216.66;;;16.41;100.00
6938;BME280;40040;42.706;23.372;2023-08-12T05:05:49;148227.84;;;16.45;100.00
6938;BME280;40040;42.706;23.372;2023-08-12T05:08:16;148232.88;;;16.47;100.00
6938;BME280;40040;42.706;23.372;2023-08-12T05:10:43;148235.31;;;16.48;100.00
6938;BME280;40040;42.706;23.372;2023-08-12T05:13:10;148241.53;;;16.51;100.00
6938;BME280;40040;42.706;23.372;2023-08-12T05:15:37;148275.00;;;16.64;100.00
6938;BME280;40040;42.706;23.372;2023-08-12T05:18:05;148308.44;;;16.78;100.00
6938;BME280;40040;42.706;23.372;2023-08-12T05:20:32;148344.41;;;16.93;100.00
6938;BME280;40040;42.706;23.372;2023-08-12T05:23:00;148379.13;;;17.07;100.00
6938;BME280;40040;42.706;23.372;2023-08-12T05:25:27;148408.88;;;17.19;100.00
6938;BME280;40040;42.706;23.372;2023-08-12T05:27:53;148462.16;;;17.40;100.00
6938;BME280;40040;42.706;23.372;2023-08-12T05:30:20;148510.59;;;17.60;100.00
6938;BME280;40040;42.706;23.372;2023-08-12T05:32:47;148546.59;;;17.74;100.00
6938;BME280;40040;42.706;23.372;2023-08-12T05:35:14;148596.19;;;17.94;100.00
6938;BME280;40040;42.706;23.372;2023-08-12T05:37:41;148635.88;;;18.11;100.00
6938;BME280;40040;42.706;23.372;2023-08-12T05:40:10;148554.00;;;17.77;100.00
6938;BME280;40040;42.706;23.372;2023-08-12T05:42:37;148740.19;;;18.53;100.00
6938;BME280;40040;42.706;23.372;2023-08-12T05:45:04;148799.75;;;18.77;100.00
6938;BME280;40040;42.706;23.372;2023-08-12T05:47:31;148825.81;;;18.87;100.00
6938;BME280;40040;42.706;23.372;2023-08-12T05:49:58;148923.91;;;19.27;99.74
6938;BME280;40040;42.706;23.372;2023-08-12T05:52:25;148894.09;;;19.15;99.20
6938;BME280;40040;42.706;23.372;2023-08-12T05:54:51;149043.16;;;19.75;94.26
6938;BME280;40040;42.706;23.372;2023-08-12T05:57:20;149101.56;;;19.99;93.06
6938;BME280;40040;42.706;23.372;2023-08-12T05:59:46;149142.53;;;20.15;91.04
6938;BME280;40040;42.706;23.372;2023-08-12T06:02:13;149189.81;;;20.35;91.44
6938;BME280;40040;42.706;23.372;2023-08-12T06:04:40;149188.59;;;20.34;90.50
6938;BME280;40040;42.706;23.372;2023-08-12T06:07:07;149326.56;;;20.90;88.46
6938;BME280;40040;42.706;23.372;2023-08-12T06:09:34;149393.72;;;21.17;86.67
6938;BME280;40040;42.706;23.372;2023-08-12T06:12:01;149450.94;;;21.40;85.63
6938;BME280;40040;42.706;23.372;2023-08-12T06:14:29;149523.06;;;21.69;82.70
6938;BME280;40040;42.706;23.372;2023-08-12T06:16:56;149592.75;;;21.97;81.13
6938;BME280;40040;42.706;23.372;2023-08-12T06:19:22;149617.63;;;22.07;79.31
6938;BME280;40040;42.706;23.372;2023-08-12T06:21:49;149688.56;;;22.36;78.37
6938;BME280;40040;42.706;23.372;2023-08-12T06:24:16;149706.00;;;22.43;77.63
6938;BME280;40040;42.706;23.372;2023-08-12T06:26:43;149816.81;;;22.88;76.54
6938;BME280;40040;42.706;23.372;2023-08-12T06:29:10;149850.41;;;23.01;76.39
6938;BME280;40040;42.706;23.372;2023-08-12T06:31:38;149840.47;;;22.97;74.74
6938;BME280;40040;42.706;23.372;2023-08-12T06:34:04;149941.34;;;23.38;73.77
6938;BME280;40040;42.706;23.372;2023-08-12T06:36:31;149993.63;;;23.59;71.84
6938;BME280;40040;42.706;23.372;2023-08-12T06:38:58;149986.19;;;23.56;71.98
6938;BME280;40040;42.706;23.372;2023-08-12T06:41:25;150055.94;;;23.84;70.91
6938;BME280;40040;42.706;23.372;2023-08-12T06:43:52;150133.22;;;24.15;70.39
6938;BME280;40040;42.706;23.372;2023-08-12T06:46:19;150183.06;;;24.35;69.99
6938;BME280;40040;42.706;23.372;2023-08-12T06:48:47;150266.56;;;24.69;67.85
6938;BME280;40040;42.706;23.372;2023-08-12T06:51:13;150304.00;;;24.84;68.21
6938;BME280;40040;42.706;23.372;2023-08-12T06:53:40;150387.47;;;25.18;67.13
6938;BME280;40040;42.706;23.372;2023-08-12T06:56:07;150363.81;;;25.08;66.90
6938;BME280;40040;42.706;23.372;2023-08-12T06:58:34;150423.66;;;25.32;66.02
6938;BME280;40040;42.706;23.372;2023-08-12T07:01:01;150447.34;;;25.42;66.16
6938;BME280;40040;42.706;23.372;2023-08-12T07:03:28;150417.38;;;25.30;66.23
6938;BME280;40040;42.706;23.372;2023-08-12T07:05:56;150426.13;;;25.33;66.77
6938;BME280;40040;42.706;23.372;2023-08-12T07:08:22;150424.91;;;25.33;66.96
6938;BME280;40040;42.706;23.372;2023-08-12T07:10:49;150397.47;;;25.22;66.81
6938;BME280;40040;42.706;23.372;2023-08-12T07:13:16;150481.06;;;25.55;67.69
6938;BME280;40040;42.706;23.372;2023-08-12T07:15:43;150534.66;;;25.77;66.00
6938;BME280;40040;42.706;23.372;2023-08-12T07:18:10;150568.38;;;25.91;66.24
6938;BME280;40040;42.706;23.372;2023-08-12T07:20:37;150617.03;;;26.10;63.57
6938;BME280;40040;42.706;23.372;2023-08-12T07:23:05;150676.88;;;26.34;63.57
6938;BME280;40040;42.706;23.372;2023-08-12T07:25:32;150676.88;;;26.34;63.87
6938;BME280;40040;42.706;23.372;2023-08-12T07:27:59;150721.81;;;26.52;64.46
6938;BME280;40040;42.706;23.372;2023-08-12T07:30:26;150760.56;;;26.68;60.67
6938;BME280;40040;42.706;23.372;2023-08-12T07:32:53;150786.75;;;26.79;60.94
6938;BME280;40040;42.706;23.372;2023-08-12T07:35:20;150785.50;;;26.78;61.07
6938;BME280;40040;42.706;23.372;2023-08-12T07:37:46;150825.44;;;26.94;59.91
6938;BME280;40040;42.706;23.372;2023-08-12T07:40:15;150779.28;;;26.76;59.84
6938;BME280;40040;42.706;23.372;2023-08-12T07:42:42;150849.16;;;27.04;58.49
6938;BME280;40040;42.706;23.372;2023-08-12T07:45:09;150917.88;;;27.31;58.73
6938;BME280;40040;42.706;23.372;2023-08-12T07:47:36;150921.59;;;27.33;58.72
6938;BME280;40040;42.706;23.372;2023-08-12T07:50:03;150801.75;;;26.85;60.22
6938;BME280;40040;42.706;23.372;2023-08-12T07:52:30;150776.75;;;26.75;59.58
6938;BME280;40040;42.706;23.372;2023-08-12T07:54:57;150784.28;;;26.78;59.57
6938;BME280;40040;42.706;23.372;2023-08-12T07:57:25;150836.69;;;26.99;59.89
6938;BME280;40040;42.706;23.372;2023-08-12T07:59:52;150886.59;;;27.19;58.32
6938;BME280;40040;42.706;23.372;2023-08-12T08:02:19;150929.09;;;27.36;57.02
6938;BME280;40040;42.706;23.372;2023-08-12T08:04:46;150951.56;;;27.45;54.47
6938;BME280;40040;42.706;23.372;2023-08-12T08:07:14;151001.53;;;27.65;54.66
6938;BME280;40040;42.706;23.372;2023-08-12T08:09:41;151077.72;;;27.96;55.85
6938;BME280;40040;42.706;23.372;2023-08-12T08:12:09;151183.91;;;28.38;53.91
6938;BME280;40040;42.706;23.372;2023-08-12T08:14:37;151213.88;;;28.50;53.96
6938;BME280;40040;42.706;23.372;2023-08-12T08:17:04;151268.88;;;28.72;53.28
6938;BME280;40040;42.706;23.372;2023-08-12T08:19:31;151283.84;;;28.78;52.83
6938;BME280;40040;42.706;23.372;2023-08-12T08:21:58;151185.13;;;28.39;53.88
6938;BME280;40040;42.706;23.372;2023-08-12T08:24:25;151272.63;;;28.74;52.90
6938;BME280;40040;42.706;23.372;2023-08-12T08:26:52;151283.84;;;28.78;52.99
6938;BME280;40040;42.706;23.372;2023-08-12T08:29:18;151358.84;;;29.09;51.94
6938;BME280;40040;42.706;23.372;2023-08-12T08:31:47;151413.91;;;29.31;49.38
6938;BME280;40040;42.706;23.372;2023-08-12T08:34:14;151475.09;;;29.55;49.62
6938;BME280;40040;42.706;23.372;2023-08-12T08:36:41;151505.16;;;29.67;48.66
6938;BME280;40040;42.706;23.372;2023-08-12T08:39:08;151616.44;;;30.12;47.08
6938;BME280;40040;42.706;23.372;2023-08-12T08:41:38;151669.03;;;30.33;46.96
6938;BME280;40040;42.706;23.372;2023-08-12T08:44:07;151734.06;;;30.59;45.88
6938;BME280;40040;42.706;23.372;2023-08-12T08:46:34;151811.66;;;30.90;45.80
6938;BME280;40040;42.706;23.372;2023-08-12T08:49:04;151862.94;;;31.11;44.74
6938;BME280;40040;42.706;23.372;2023-08-12T08:51:31;151661.47;;;30.30;45.06
6938;BME280;40040;42.706;23.372;2023-08-12T08:53:58;151410.09;;;29.29;47.61
6938;BME280;40040;42.706;23.372;2023-08-12T08:56:25;151396.41;;;29.24;49.61
6938;BME280;40040;42.706;23.372;2023-08-12T08:58:52;151395.13;;;29.23;47.95
6938;BME280;40040;42.706;23.372;2023-08-12T09:01:20;151593.94;;;30.03;47.74
6938;BME280;40040;42.706;23.372;2023-08-12T09:03:50;151720.28;;;30.54;45.68
6938;BME280;40040;42.706;23.372;2023-08-12T09:06:20;151846.69;;;31.05;44.89
6938;BME280;40040;42.706;23.372;2023-08-12T09:08:48;151979.34;;;31.58;43.36
6938;BME280;40040;42.706;23.372;2023-08-12T09:11:17;152067.00;;;31.93;42.35
6938;BME280;40040;42.706;23.372;2023-08-12T09:13:44;152194.75;;;32.44;40.97
6938;BME280;40040;42.706;23.372;2023-08-12T09:16:11;152229.81;;;32.58;40.99
6938;BME280;40040;42.706;23.372;2023-08-12T09:18:39;152113.28;;;32.12;41.04
6938;BME280;40040;42.706;23.372;2023-08-12T09:21:06;151969.34;;;31.54;42.53
6938;BME280;40040;42.706;23.372;2023-08-12T09:23:37;151850.44;;;31.06;44.61
6938;BME280;40040;42.706;23.372;2023-08-12T09:26:12;151684.00;;;30.39;45.39
6938;BME280;40040;42.706;23.372;2023-08-12T09:28:40;151586.44;;;30.00;45.71
6938;BME280;40040;42.706;23.372;2023-08-12T09:31:07;151625.19;;;30.16;46.20
6938;BME280;40040;42.706;23.372;2023-08-12T09:33:39;151734.06;;;30.59;44.77
6938;BME280;40040;42.706;23.372;2023-08-12T09:36:06;151739.06;;;30.61;43.53
6938;BME280;40040;42.706;23.372;2023-08-12T09:38:33;151871.69;;;31.15;42.68
6938;BME280;40040;42.706;23.372;2023-08-12T09:41:02;152026.88;;;31.77;43.31
6938;BME280;40040;42.706;23.372;2023-08-12T09:43:28;152207.28;;;32.49;41.09
6938;BME280;40040;42.706;23.372;2023-08-12T09:45:56;152367.59;;;33.14;39.62
6938;BME280;40040;42.706;23.372;2023-08-12T09:48:25;152370.09;;;33.15;39.21
6938;BME280;40040;42.706;23.372;2023-08-12T09:50:52;152533.03;;;33.80;37.24
6938;BME280;40040;42.706;23.372;2023-08-12T09:53:19;152583.16;;;34.00;37.18
6938;BME280;40040;42.706;23.372;2023-08-12T09:55:48;152573.19;;;33.96;37.24
6938;BME280;40040;42.706;23.372;2023-08-12T09:58:21;152432.75;;;33.40;38.60
6938;BME280;40040;42.706;23.372;2023-08-12T10:00:49;152380.13;;;33.19;39.00
6938;BME280;40040;42.706;23.372;2023-08-12T10:03:17;152470.34;;;33.55;38.15
6938;BME280;40040;42.706;23.372;2023-08-12T10:05:47;152563.09;;;33.92;36.50
6938;BME280;40040;42.706;23.372;2023-08-12T10:08:14;152655.88;;;34.29;34.80
6938;BME280;40040;42.706;23.372;2023-08-12T10:10:42;152609.47;;;34.10;35.23
6938;BME280;40040;42.706;23.372;2023-08-12T10:13:10;152613.28;;;34.12;34.45
6938;BME280;40040;42.706;23.372;2023-08-12T10:15:38;152668.41;;;34.34;34.49
6938;BME280;40040;42.706;23.372;2023-08-12T10:18:06;152708.59;;;34.50;34.59
6938;BME280;40040;42.706;23.372;2023-08-12T10:20:35;152639.56;;;34.23;36.62
6938;BME280;40040;42.706;23.372;2023-08-12T10:23:04;152678.44;;;34.38;35.69
6938;BME280;40040;42.706;23.372;2023-08-12T10:25:32;152743.69;;;34.64;35.48
6938;BME280;40040;42.706;23.372;2023-08-12T10:28:00;152793.81;;;34.84;34.45
6938;BME280;40040;42.706;23.372;2023-08-12T10:30:29;152897.91;;;35.26;31.69
6938;BME280;40040;42.706;23.372;2023-08-12T10:32:58;152871.56;;;35.15;30.47
6938;BME280;40040;42.706;23.372;2023-08-12T10:35:40;152931.75;;;35.40;29.98
6938;BME280;40040;42.706;23.372;2023-08-12T10:38:07;152959.41;;;35.51;30.47
6938;BME280;40040;42.706;23.372;2023-08-12T10:40:34;152944.34;;;35.45;30.30
6938;BME280;40040;42.706;23.372;2023-08-12T10:43:01;152851.53;;;35.07;32.55
6938;BME280;40040;42.706;23.372;2023-08-12T10:45:41;152675.91;;;34.37;32.21
6938;BME280;40040;42.706;23.372;2023-08-12T10:48:17;152685.97;;;34.41;33.57
6938;BME280;40040;42.706;23.372;2023-08-12T10:50:48;152716.09;;;34.53;32.27
6938;BME280;40040;42.706;23.372;2023-08-12T10:53:23;152729.88;;;34.59;33.02
6938;BME280;40040;42.706;23.372;2023-08-12T10:55:55;152766.22;;;34.73;31.51
6938;BME280;40040;42.706;23.372;2023-08-12T10:58:27;152744.91;;;34.65;31.82
6938;BME280;40040;42.706;23.372;2023-08-12T11:00:55;152702.28;;;34.48;31.40
6938;BME280;40040;42.706;23.372;2023-08-12T11:03:23;152766.22;;;34.73;31.18
6938;BME280;40040;42.706;23.372;2023-08-12T11:05:50;152810.09;;;34.91;30.93
6938;BME280;40040;42.706;23.372;2023-08-12T11:08:24;152951.91;;;35.48;33.05
6938;BME280;40040;42.706;23.372;2023-08-12T11:10:54;152881.63;;;35.20;30.50
6938;BME280;40040;42.706;23.372;2023-08-12T11:13:22;152866.56;;;35.13;29.93
6938;BME280;40040;42.706;23.372;2023-08-12T11:15:49;152772.50;;;34.76;32.18
6938;BME280;40040;42.706;23.372;2023-08-12T11:18:17;152823.94;;;34.96;31.58
6938;BME280;40040;42.706;23.372;2023-08-12T11:20:47;152915.47;;;35.33;31.59
6938;BME280;40040;42.706;23.372;2023-08-12T11:23:15;152989.50;;;35.63;29.65
6938;BME280;40040;42.706;23.372;2023-08-12T11:25:42;153061.06;;;35.91;27.54
6938;BME280;40040;42.706;23.372;2023-08-12T11:28:10;153032.13;;;35.80;27.21
6938;BME280;40040;42.706;23.372;2023-08-12T11:30:40;153054.78;;;35.89;27.51
6938;BME280;40040;42.706;23.372;2023-08-12T11:33:09;153040.91;;;35.83;27.59
6938;BME280;40040;42.706;23.372;2023-08-12T11:35:36;153094.94;;;36.05;27.64
6938;BME280;40040;42.706;23.372;2023-08-12T11:38:05;153029.66;;;35.79;28.78
6938;BME280;40040;42.706;23.372;2023-08-12T11:40:33;152846.50;;;35.05;29.16
6938;BME280;40040;42.706;23.372;2023-08-12T11:43:02;152861.53;;;35.11;29.81
6938;BME280;40040;42.706;23.372;2023-08-12T11:45:29;152736.13;;;34.61;30.38
6938;BME280;40040;42.706;23.372;2023-08-12T11:47:56;152722.34;;;34.56;31.01
6938;BME280;40040;42.706;23.372;2023-08-12T11:50:24;152722.34;;;34.56;30.10
6938;BME280;40040;42.706;23.372;2023-08-12T11:52:52;152786.28;;;34.81;30.67
6938;BME280;40040;42.706;23.372;2023-08-12T11:55:21;152694.78;;;34.45;30.70
6938;BME280;40040;42.706;23.372;2023-08-12T11:57:50;152612.03;;;34.12;31.49
6938;BME280;40040;42.706;23.372;2023-08-12T12:00:17;152545.53;;;33.85;32.48
6938;BME280;40040;42.706;23.372;2023-08-12T12:02:49;152487.91;;;33.62;33.45
6938;BME280;40040;42.706;23.372;2023-08-12T12:05:17;152338.81;;;33.02;34.29
6938;BME280;40040;42.706;23.372;2023-08-12T12:07:44;152195.97;;;32.45;34.79
6938;BME280;40040;42.706;23.372;2023-08-12T12:10:13;152073.28;;;31.95;34.88
6938;BME280;40040;42.706;23.372;2023-08-12T12:12:44;152025.69;;;31.76;36.42
6938;BME280;40040;42.706;23.372;2023-08-12T12:15:12;151974.31;;;31.56;36.34
6938;BME280;40040;42.706;23.372;2023-08-12T12:17:40;151895.47;;;31.24;36.72
6938;BME280;40040;42.706;23.372;2023-08-12T12:20:08;151850.44;;;31.06;36.46
6938;BME280;40040;42.706;23.372;2023-08-12T12:22:37;151849.16;;;31.06;37.58
6938;BME280;40040;42.706;23.372;2023-08-12T12:25:11;151821.66;;;30.95;38.76
6938;BME280;40040;42.706;23.372;2023-08-12T12:27:39;151740.28;;;30.62;37.39
6938;BME280;40040;42.706;23.372;2023-08-12T12:30:09;151596.41;;;30.04;38.74
6938;BME280;40040;42.706;23.372;2023-08-12T12:32:37;151598.94;;;30.05;38.65
6938;BME280;40040;42.706;23.372;2023-08-12T12:35:04;151565.19;;;29.92;39.33
6938;BME280;40040;42.706;23.372;2023-08-12T12:37:32;151493.88;;;29.63;37.74
6938;BME280;40040;42.706;23.372;2023-08-12T12:39:59;151513.91;;;29.71;37.89
6938;BME280;40040;42.706;23.372;2023-08-12T12:42:26;151516.44;;;29.72;38.88
6938;BME280;40040;42.706;23.372;2023-08-12T12:44:52;151501.34;;;29.66;39.95
6938;BME280;40040;42.706;23.372;2023-08-12T12:47:21;151496.41;;;29.64;39.00